createdAt,value
2023-04-28T00:02:08.830Z,14.15
2023-04-28T00:05:13.137Z,20.52
2023-04-28T00:08:24.324Z,16.90
2023-04-28T00:11:28.975Z,17.67
2023-04-28T00:14:36.222Z,16.67
2023-04-28T00:17:45.066Z,16.92
2023-04-28T00:20:50.937Z,16.38
2023-04-28T00:24:00.605Z,16.20
2023-04-28T00:27:10.036Z,16.90
2023-04-28T00:30:14.692Z,16.40
2023-04-28T00:33:21.700Z,17.30
2023-04-28T00:36:26.233Z,16.63
2023-04-28T00:39:34.804Z,18.83
2023-04-28T00:42:43.799Z,18.50
2023-04-28T00:45:49.041Z,17.25
2023-04-28T00:48:54.001Z,15.35
2023-04-28T00:52:06.415Z,14.18
2023-04-28T00:55:23.764Z,13.93
2023-04-28T00:58:33.872Z,19.38
2023-04-28T01:01:58.999Z,15.10
2023-04-28T01:05:05.332Z,15.48
2023-04-28T01:08:10.167Z,15.98
2023-04-28T01:11:19.426Z,14.65
2023-04-28T01:15:32.517Z,15.85
2023-04-28T01:18:37.722Z,16.40
2023-04-28T01:21:47.439Z,14.73
2023-04-28T01:25:01.299Z,16.52
2023-04-28T01:28:07.667Z,16.33
2023-04-28T01:31:21.245Z,16.83
2023-04-28T01:34:31.661Z,16.77
2023-04-28T01:37:50.177Z,17.08
2023-04-28T01:41:13.046Z,14.43
2023-04-28T01:44:40.132Z,15.23
2023-04-28T01:47:46.835Z,14.50
2023-04-28T01:51:05.625Z,14.18
2023-04-28T01:54:30.667Z,15.38
2023-04-28T02:19:43.629Z,13.85
2023-04-28T02:22:58.738Z,13.27
2023-04-28T02:26:12.312Z,11.75
2023-04-28T02:29:17.176Z,12.98
2023-04-28T02:32:25.015Z,12.05
2023-04-28T02:35:53.241Z,12.85
2023-04-28T02:39:09.747Z,11.20
2023-04-28T02:42:21.070Z,10.52
2023-04-28T02:45:28.047Z,10.85
2023-04-28T02:48:39.961Z,8.13
2023-04-28T02:51:45.175Z,13.30
2023-04-28T02:54:51.156Z,9.00
2023-04-28T02:58:01.493Z,8.70
2023-04-28T03:01:18.312Z,11.23
2023-04-28T03:04:25.112Z,6.70
2023-04-28T03:07:29.715Z,8.25
2023-04-28T03:10:34.450Z,10.40
2023-04-28T03:13:47.775Z,8.45
2023-04-28T03:16:52.319Z,7.90
2023-04-28T03:19:57.450Z,7.65
2023-04-28T03:23:03.478Z,9.13
2023-04-28T03:26:07.928Z,13.05
2023-04-28T03:29:12.693Z,10.68
2023-04-28T03:32:20.004Z,7.15
2023-04-28T03:35:30.343Z,24.77
2023-04-28T03:38:35.041Z,47.10
2023-04-28T03:41:45.759Z,8.43
2023-04-28T03:48:16.870Z,10.60
2023-04-28T03:51:21.604Z,11.75
2023-04-28T03:54:28.412Z,9.50
2023-04-28T03:57:42.520Z,9.65
2023-04-28T04:00:47.235Z,10.20
2023-04-28T04:07:35.933Z,9.65
2023-04-28T04:10:47.009Z,9.70
2023-04-28T04:13:54.613Z,9.82
2023-04-28T04:17:01.513Z,11.10
2023-04-28T04:20:09.363Z,10.90
2023-04-28T04:23:13.784Z,9.13
2023-04-28T04:26:26.213Z,10.25
2023-04-28T04:29:34.104Z,9.43
2023-04-28T04:32:46.367Z,9.00
2023-04-28T04:35:51.743Z,8.98
2023-04-28T04:38:56.248Z,9.15
2023-04-28T04:42:07.264Z,9.75
2023-04-28T04:45:24.444Z,8.95
2023-04-28T04:48:28.980Z,9.45
2023-04-28T04:51:36.089Z,13.25
2023-04-28T04:54:43.683Z,8.65
2023-04-28T04:57:50.558Z,9.70
2023-04-28T05:01:18.077Z,9.48
2023-04-28T05:04:23.113Z,8.25
2023-04-28T05:07:28.762Z,9.07
2023-04-28T05:10:33.817Z,8.18
2023-04-28T05:13:43.494Z,8.82
2023-04-28T05:16:49.667Z,10.48
2023-04-28T05:20:07.906Z,9.05
2023-04-28T05:23:12.204Z,8.23
2023-04-28T05:26:17.603Z,8.40
2023-04-28T05:29:22.929Z,9.05
2023-04-28T05:32:30.771Z,9.02
2023-04-28T05:35:35.306Z,9.00
2023-04-28T05:38:42.103Z,9.07
2023-04-28T05:41:46.274Z,9.30
2023-04-28T05:44:50.932Z,8.85
2023-04-28T05:47:58.503Z,8.60
2023-04-28T05:51:03.307Z,10.68
2023-04-28T05:54:08.213Z,9.38
2023-04-28T05:57:19.254Z,9.63
2023-04-28T06:00:23.897Z,9.37
2023-04-28T06:06:38.723Z,7.85
2023-04-28T06:18:51.983Z,6.75
2023-04-28T06:21:58.874Z,7.63
2023-04-28T06:25:03.489Z,7.43
2023-04-28T06:28:17.050Z,8.25
2023-04-28T06:31:24.879Z,8.90
2023-04-28T06:34:32.005Z,7.38
2023-04-28T06:37:36.882Z,7.80
2023-04-28T06:40:41.858Z,7.72
2023-04-28T06:43:46.659Z,8.60
2023-04-28T06:47:07.228Z,6.97
2023-04-28T06:50:12.986Z,7.65
2023-04-28T06:53:17.602Z,7.10
2023-04-28T06:56:23.905Z,7.50
2023-04-28T06:59:28.435Z,6.85
2023-04-28T07:02:32.986Z,7.03
2023-04-28T07:05:40.555Z,8.60
2023-04-28T07:08:45.700Z,9.68
2023-04-28T07:12:00.542Z,7.22
2023-04-28T07:15:05.755Z,8.50
2023-04-28T07:21:18.404Z,7.13
2023-04-28T07:24:24.405Z,8.00
2023-04-28T07:27:29.281Z,5.85
2023-04-28T07:30:35.158Z,5.60
2023-04-28T07:33:39.355Z,5.30
2023-04-28T07:36:44.091Z,5.43
2023-04-28T07:39:48.471Z,6.28
2023-04-28T07:42:53.084Z,5.70
2023-04-28T07:46:00.126Z,5.50
2023-04-28T07:49:05.778Z,11.25
2023-04-28T07:52:11.084Z,9.50
2023-04-28T07:55:17.398Z,4.82
2023-04-28T07:58:24.217Z,35.80
2023-04-28T08:01:28.809Z,21.73
2023-04-28T08:04:41.701Z,12.50
2023-04-28T08:07:46.412Z,5.25
2023-04-28T08:10:51.573Z,4.27
2023-04-28T08:13:58.773Z,5.43
2023-04-28T08:17:45.407Z,4.82
2023-04-28T08:23:55.481Z,20.60
2023-04-28T08:30:03.657Z,6.80
2023-04-28T08:33:08.963Z,5.30
2023-04-28T08:36:18.699Z,5.72
2023-04-28T08:39:24.607Z,6.20
2023-04-28T08:42:32.121Z,6.82
2023-04-28T08:45:43.967Z,5.32
2023-04-28T08:48:51.481Z,6.22
2023-04-28T08:52:02.003Z,5.90
2023-04-28T08:55:15.338Z,5.47
2023-04-28T08:58:21.233Z,7.05
2023-04-28T09:01:26.001Z,10.25
2023-04-28T09:04:30.972Z,12.63
2023-04-28T09:07:35.249Z,10.02
2023-04-28T09:10:41.926Z,11.55
2023-04-28T09:13:45.963Z,8.88
2023-04-28T09:16:52.506Z,9.65
2023-04-28T09:20:05.181Z,12.23
2023-04-28T09:23:18.470Z,7.97
2023-04-28T09:26:24.093Z,7.90
2023-04-28T09:32:34.697Z,8.32
2023-04-28T09:35:44.434Z,7.80
2023-04-28T09:38:49.080Z,11.90
2023-04-28T09:41:56.066Z,24.15
2023-04-28T09:45:00.662Z,25.10
2023-04-28T09:48:12.014Z,20.45
2023-04-28T09:51:22.558Z,23.83
2023-04-28T09:54:35.082Z,23.98
2023-04-28T09:57:41.498Z,17.10
2023-04-28T10:00:53.507Z,21.80
2023-04-28T10:03:59.198Z,20.10
2023-04-28T10:07:09.106Z,20.38
2023-04-28T10:10:15.563Z,18.73
2023-04-28T10:13:21.033Z,24.05
2023-04-28T10:16:28.373Z,25.10
2023-04-28T10:19:32.360Z,22.63
2023-04-28T10:23:22.391Z,26.60
2023-04-28T10:29:45.380Z,36.33
2023-04-28T10:33:12.754Z,39.72
2023-04-28T10:36:50.256Z,30.48
2023-04-28T10:40:33.935Z,26.25
2023-04-28T10:43:40.752Z,13.65
2023-04-28T10:47:11.019Z,11.98
2023-04-28T10:50:15.974Z,11.48
2023-04-28T10:53:20.024Z,16.67
2023-04-28T10:56:28.871Z,13.98
2023-04-28T10:59:35.601Z,15.18
2023-04-28T11:02:44.510Z,16.98
2023-04-28T11:06:36.349Z,21.17
2023-04-28T11:09:42.749Z,22.92
2023-04-28T11:13:25.247Z,26.73
2023-04-28T11:16:29.778Z,25.98
2023-04-28T11:19:37.360Z,23.63
2023-04-28T11:22:42.545Z,25.55
2023-04-28T11:25:59.220Z,23.50
2023-04-28T11:29:03.786Z,24.67
2023-04-28T11:32:11.721Z,22.63
2023-04-28T11:35:16.337Z,22.17
2023-04-28T11:38:21.117Z,26.00
2023-04-28T11:41:25.764Z,23.33
2023-04-28T11:44:33.835Z,16.38
2023-04-28T11:47:40.727Z,21.27
2023-04-28T11:50:46.237Z,17.85
2023-04-28T11:53:52.281Z,18.38
2023-04-28T11:56:59.486Z,15.38
2023-04-28T12:00:21.278Z,11.95
2023-04-28T12:03:26.168Z,9.32
2023-04-28T12:06:30.845Z,10.20
2023-04-28T12:09:36.728Z,10.52
2023-04-28T12:12:50.883Z,16.65
2023-04-28T12:16:02.170Z,21.42
2023-04-28T12:19:10.780Z,28.65
2023-04-28T12:22:18.252Z,20.60
2023-04-28T12:25:26.864Z,26.42
2023-04-28T12:28:41.314Z,33.15
2023-04-28T12:31:53.644Z,31.48
2023-04-28T12:34:58.869Z,42.00
2023-04-28T12:38:03.005Z,42.50
2023-04-28T12:41:07.070Z,43.33
2023-04-28T12:44:13.290Z,52.17
2023-04-28T12:47:21.325Z,49.15
2023-04-28T12:50:27.895Z,51.60
2023-04-28T12:53:32.153Z,41.75
2023-04-28T12:56:36.758Z,44.67
2023-04-28T12:59:41.605Z,35.97
2023-04-28T13:02:46.308Z,30.23
2023-04-28T13:05:50.833Z,27.13
2023-04-28T13:08:55.941Z,23.67
2023-04-28T13:12:00.584Z,45.60
2023-04-28T13:15:05.399Z,47.22
2023-04-28T13:18:11.244Z,26.38
2023-04-28T13:21:18.246Z,22.25
2023-04-28T13:24:22.782Z,15.77
2023-04-28T13:27:27.611Z,24.48
2023-04-28T13:30:31.718Z,22.57
2023-04-28T13:33:36.173Z,22.52
2023-04-28T13:36:40.872Z,23.05
2023-04-28T13:39:47.635Z,24.02
2023-04-28T13:42:57.620Z,28.63
2023-04-28T13:46:02.337Z,29.90
2023-04-28T13:49:06.849Z,34.33
2023-04-28T13:52:11.516Z,16.43
2023-04-28T13:55:19.528Z,14.50
2023-04-28T13:58:28.512Z,24.63
2023-04-28T14:01:35.123Z,12.40
2023-04-28T14:04:42.608Z,21.00
2023-04-28T14:07:47.422Z,24.52
2023-04-28T14:10:52.965Z,16.40
2023-04-28T14:17:04.684Z,21.35
2023-04-28T14:23:17.528Z,23.58
2023-04-28T14:26:22.047Z,17.87
2023-04-28T14:29:26.572Z,20.70
2023-04-28T14:32:40.441Z,17.43
2023-04-28T14:35:53.511Z,18.77
2023-04-28T14:38:59.231Z,17.73
2023-04-28T14:42:07.053Z,18.58
2023-04-28T14:45:12.687Z,17.88
2023-04-28T14:51:22.689Z,18.27
2023-04-28T14:54:27.901Z,18.85
2023-04-28T14:57:32.714Z,19.75
2023-04-28T15:00:37.942Z,15.52
2023-04-28T15:03:42.727Z,15.45
2023-04-28T15:06:47.350Z,15.18
2023-04-28T15:09:52.334Z,15.68
2023-04-28T15:12:56.552Z,14.95
2023-04-28T15:16:03.541Z,17.63
2023-04-28T15:19:08.181Z,31.00
2023-04-28T15:22:12.346Z,26.50
2023-04-28T15:25:17.382Z,35.30
2023-04-28T15:28:22.943Z,30.15
2023-04-28T15:34:31.286Z,24.58
2023-04-28T15:37:38.728Z,22.25
2023-04-28T15:40:44.351Z,23.33
2023-04-28T15:43:51.271Z,17.48
2023-04-28T15:46:56.810Z,14.70
2023-04-28T15:50:01.074Z,11.85
2023-04-28T15:53:07.997Z,12.68
2023-04-28T15:56:12.508Z,12.20
2023-04-28T15:59:19.313Z,14.63
2023-04-28T16:02:28.060Z,14.32
2023-04-28T16:05:32.793Z,12.07
2023-04-28T16:08:37.439Z,9.50
2023-04-28T16:11:42.227Z,10.38
2023-04-28T16:14:49.352Z,12.82
2023-04-28T16:17:54.343Z,11.23
2023-04-28T16:21:00.238Z,10.68
2023-04-28T16:24:09.983Z,9.85
2023-04-28T16:27:14.995Z,7.95
2023-04-28T16:30:21.010Z,9.70
2023-04-28T16:33:25.361Z,7.38
2023-04-28T16:36:33.653Z,8.05
2023-04-28T16:39:38.528Z,8.70
2023-04-28T16:42:44.259Z,7.53
2023-04-28T16:45:51.041Z,7.53
2023-04-28T16:48:55.621Z,6.53
2023-04-28T16:52:11.098Z,6.35
2023-04-28T16:55:20.038Z,7.07
2023-04-28T16:58:25.272Z,6.45
2023-04-28T17:01:30.626Z,5.45
2023-04-28T17:04:36.326Z,5.70
2023-04-28T17:07:41.112Z,6.10
2023-04-28T17:10:47.700Z,5.38
2023-04-28T17:13:52.019Z,5.90
2023-04-28T17:16:57.352Z,14.27
2023-04-28T17:20:03.212Z,6.25
2023-04-28T17:23:08.050Z,11.02
2023-04-28T17:26:12.418Z,9.43
2023-04-28T17:29:17.158Z,8.02
2023-04-28T17:32:21.369Z,6.93
2023-04-28T17:35:26.722Z,6.70
2023-04-28T17:38:31.843Z,6.68
2023-04-28T17:41:39.163Z,6.45
2023-04-28T17:44:43.251Z,7.07
2023-04-28T17:47:47.928Z,6.30
2023-04-28T17:50:53.257Z,6.17
2023-04-28T17:53:57.862Z,7.05
2023-04-28T17:57:04.031Z,7.25
2023-04-28T18:00:12.941Z,6.85
2023-04-28T18:03:17.893Z,6.60
2023-04-28T18:06:23.253Z,6.27
2023-04-28T18:09:27.994Z,6.15
2023-04-28T18:12:32.547Z,7.97
2023-04-28T18:15:38.121Z,8.70
2023-04-28T18:18:45.704Z,11.13
2023-04-28T18:21:50.052Z,12.45
2023-04-28T18:24:54.721Z,12.65
2023-04-28T18:28:02.227Z,12.40
2023-04-28T18:31:07.049Z,10.57
2023-04-28T18:34:11.867Z,10.02
2023-04-28T18:37:15.952Z,10.23
2023-04-28T18:40:20.799Z,9.45
2023-04-28T18:43:28.803Z,9.48
2023-04-28T18:46:33.489Z,11.43
2023-04-28T18:49:38.986Z,11.20
2023-04-28T18:52:43.042Z,9.50
2023-04-28T18:55:47.534Z,9.52
2023-04-28T18:58:51.753Z,9.05
2023-04-28T19:01:55.807Z,9.65
2023-04-28T19:05:01.639Z,9.77
2023-04-28T19:08:10.871Z,10.07
2023-04-28T19:11:16.524Z,9.40
2023-04-28T19:14:21.303Z,9.15
2023-04-28T19:17:28.396Z,6.88
2023-04-28T19:20:32.608Z,6.80
2023-04-28T19:23:36.897Z,6.90
2023-04-28T19:26:41.488Z,6.93
2023-04-28T19:29:49.231Z,6.90
2023-04-28T19:32:53.715Z,6.33
2023-04-28T19:35:58.049Z,9.05
2023-04-28T19:39:01.942Z,7.13
2023-04-28T19:42:06.548Z,5.72
2023-04-28T19:45:11.623Z,5.60
2023-04-28T19:48:16.112Z,6.03
2023-04-28T19:51:23.188Z,6.28
2023-04-28T19:54:28.478Z,7.07
2023-04-28T19:57:35.406Z,7.10
2023-04-28T20:00:40.181Z,7.72
2023-04-28T20:03:47.758Z,8.13
2023-04-28T20:06:53.517Z,7.85
2023-04-28T20:09:58.853Z,7.38
2023-04-28T20:13:02.945Z,7.13
2023-04-28T20:16:08.064Z,5.90
2023-04-28T20:19:15.249Z,6.47
2023-04-28T20:22:19.716Z,6.20
2023-04-28T20:25:24.261Z,5.70
2023-04-28T20:28:31.427Z,5.43
2023-04-28T20:31:36.597Z,6.47
2023-04-28T20:34:43.459Z,4.82
2023-04-28T20:37:47.590Z,3.40
2023-04-28T20:40:54.439Z,3.30
2023-04-28T20:43:58.571Z,4.00
2023-04-28T20:47:02.796Z,4.63
2023-04-28T20:50:21.926Z,7.30
2023-04-28T20:59:11.854Z,3.45
2023-04-28T21:02:13.772Z,2.80
2023-04-28T21:05:18.420Z,3.28
2023-04-28T21:08:27.821Z,3.42
2023-04-28T21:11:32.365Z,3.92
2023-04-28T21:14:37.501Z,3.85
2023-04-28T21:17:45.695Z,6.65
2023-04-28T21:20:51.852Z,18.73
2023-04-28T21:27:01.700Z,49.47
2023-04-28T21:30:06.809Z,23.17
2023-04-28T21:33:12.101Z,18.33
2023-04-28T21:36:18.816Z,8.90
2023-04-28T21:39:23.365Z,6.40
2023-04-28T21:42:34.987Z,4.00
2023-04-28T21:45:39.440Z,5.07
2023-04-28T21:48:51.209Z,4.10
2023-04-28T21:51:59.007Z,3.03
2023-04-28T21:55:50.121Z,4.20
2023-04-28T21:59:00.075Z,4.20
2023-04-28T22:02:04.604Z,5.55
2023-04-28T22:05:13.433Z,3.70
2023-04-28T22:08:22.159Z,2.92
2023-04-28T22:11:30.163Z,2.58
2023-04-28T22:14:40.937Z,2.40
2023-04-28T22:17:46.350Z,2.80
2023-04-28T22:20:50.939Z,5.30
2023-04-28T22:23:55.354Z,2.60
2023-04-28T22:27:12.012Z,3.20
2023-04-28T22:30:16.767Z,3.15
2023-04-28T22:33:24.038Z,3.58
2023-04-28T22:36:30.689Z,3.60
2023-04-28T22:39:37.496Z,3.35
2023-04-28T22:42:47.962Z,2.70
2023-04-28T22:45:57.422Z,3.70
2023-04-28T22:49:02.217Z,2.92
2023-04-28T22:52:11.455Z,3.92
2023-04-28T22:55:15.714Z,3.40
2023-04-28T22:58:49.153Z,3.17
2023-04-28T23:02:23.341Z,2.50
2023-04-28T23:05:32.604Z,2.30
2023-04-28T23:08:53.834Z,3.38
2023-04-28T23:12:07.440Z,4.10
2023-04-28T23:15:15.097Z,3.78
2023-04-28T23:18:30.896Z,3.33
2023-04-28T23:21:48.999Z,3.35
2023-04-28T23:25:03.778Z,3.92
2023-04-28T23:28:14.875Z,3.45
2023-04-28T23:31:21.470Z,3.42
2023-04-28T23:34:36.999Z,4.20
2023-04-28T23:37:43.339Z,3.45
2023-04-28T23:40:52.388Z,4.15
2023-04-28T23:43:59.682Z,4.32
2023-04-28T23:47:04.461Z,3.65
2023-04-28T23:50:12.850Z,3.20
2023-04-28T23:53:19.797Z,3.22
2023-04-28T23:56:43.860Z,3.25
